createdAt,value
2022-11-21T00:00:27.908Z,4.62
2022-11-21T00:02:54.475Z,4.54
2022-11-21T00:05:20.959Z,4.57
2022-11-21T00:07:47.451Z,4.52
2022-11-21T00:10:14.031Z,4.41
2022-11-21T00:12:40.515Z,4.44
2022-11-21T00:15:07.366Z,4.45
2022-11-21T00:17:33.844Z,4.49
2022-11-21T00:20:00.296Z,4.52
2022-11-21T00:22:26.788Z,4.56
2022-11-21T00:24:54.400Z,4.61
2022-11-21T00:27:20.948Z,4.57
2022-11-21T00:29:47.414Z,4.60
2022-11-21T00:32:13.852Z,4.57
2022-11-21T00:34:40.401Z,4.70
2022-11-21T00:37:06.862Z,4.79
2022-11-21T00:39:33.371Z,4.78
2022-11-21T00:41:59.848Z,4.91
2022-11-21T00:44:26.634Z,5.02
2022-11-21T00:46:53.255Z,5.05
2022-11-21T00:49:19.707Z,5.02
2022-11-21T00:51:46.243Z,4.90
2022-11-21T00:54:12.792Z,4.93
2022-11-21T00:56:39.320Z,4.84
2022-11-21T00:59:05.754Z,4.79
2022-11-21T01:01:32.308Z,4.74
2022-11-21T01:03:59.132Z,4.58
2022-11-21T01:06:25.654Z,4.57
2022-11-21T01:08:52.112Z,4.57
2022-11-21T01:11:20.291Z,4.68
2022-11-21T01:13:48.703Z,4.80
2022-11-21T01:16:21.151Z,4.91
2022-11-21T01:18:48.297Z,4.90
2022-11-21T01:21:20.594Z,4.85
2022-11-21T01:23:48.064Z,4.72
2022-11-21T01:26:17.527Z,4.62
2022-11-21T01:28:44.329Z,4.64
2022-11-21T01:31:17.136Z,4.87
2022-11-21T01:33:43.683Z,4.89
2022-11-21T01:36:21.870Z,4.91
2022-11-21T01:38:50.162Z,4.85
2022-11-21T01:41:19.227Z,4.83
2022-11-21T01:43:47.732Z,4.87
2022-11-21T01:46:16.530Z,4.81
2022-11-21T01:48:52.478Z,4.73
2022-11-21T01:51:31.439Z,4.77
2022-11-21T01:54:06.232Z,4.92
2022-11-21T01:56:56.416Z,5.01
2022-11-21T01:59:29.156Z,4.99
2022-11-21T02:01:57.886Z,5.00
2022-11-21T02:04:28.940Z,5.05
2022-11-21T02:06:55.651Z,5.10
2022-11-21T02:09:22.519Z,5.19
2022-11-21T02:11:54.466Z,5.25
2022-11-21T02:14:20.924Z,5.15
2022-11-21T02:16:47.511Z,5.19
2022-11-21T02:19:52.015Z,5.24
2022-11-21T02:22:45.835Z,5.22
2022-11-21T02:25:18.183Z,5.25
2022-11-21T02:27:46.197Z,5.22
2022-11-21T02:30:13.402Z,5.20
2022-11-21T02:32:49.512Z,5.18
2022-11-21T02:35:18.174Z,5.08
2022-11-21T02:37:58.122Z,5.10
2022-11-21T02:40:29.075Z,5.10
2022-11-21T02:43:13.595Z,5.08
2022-11-21T02:45:42.417Z,5.12
2022-11-21T02:48:09.676Z,5.15
2022-11-21T02:50:41.364Z,5.17
2022-11-21T02:53:13.179Z,5.24
2022-11-21T02:55:39.909Z,5.12
2022-11-21T02:58:06.654Z,5.13
2022-11-21T03:00:35.296Z,4.93
2022-11-21T03:03:02.141Z,4.99
2022-11-21T03:05:28.735Z,4.96
2022-11-21T03:07:55.225Z,4.97
2022-11-21T03:10:21.714Z,4.78
2022-11-21T03:12:48.465Z,4.83
2022-11-21T03:15:15.809Z,4.80
2022-11-21T03:17:43.577Z,4.76
2022-11-21T03:20:10.864Z,4.80
2022-11-21T03:22:37.645Z,4.83
2022-11-21T03:25:04.509Z,4.90
2022-11-21T03:27:30.984Z,4.91
2022-11-21T03:29:57.433Z,4.86
2022-11-21T03:32:23.977Z,4.88
2022-11-21T03:34:50.479Z,4.94
2022-11-21T03:37:17.148Z,4.94
2022-11-21T03:39:43.823Z,4.85
2022-11-21T03:42:10.337Z,4.79
2022-11-21T03:44:36.775Z,4.79
2022-11-21T03:47:03.423Z,4.83
2022-11-21T03:49:29.891Z,4.75
2022-11-21T03:51:56.448Z,4.72
2022-11-21T03:54:22.906Z,4.79
2022-11-21T03:56:49.399Z,4.66
2022-11-21T03:59:15.845Z,4.69
2022-11-21T04:01:42.405Z,4.84
2022-11-21T04:04:08.898Z,4.76
2022-11-21T04:06:35.366Z,4.86
2022-11-21T04:09:01.926Z,4.78
2022-11-21T04:11:28.496Z,4.87
2022-11-21T04:13:55.169Z,4.93
2022-11-21T04:16:21.755Z,4.88
2022-11-21T04:18:48.312Z,4.95
2022-11-21T04:21:14.807Z,4.91
2022-11-21T04:23:41.403Z,5.01
2022-11-21T04:26:08.201Z,4.91
2022-11-21T04:28:34.761Z,4.89
2022-11-21T04:31:10.336Z,4.81
2022-11-21T04:33:38.982Z,4.85
2022-11-21T04:36:06.686Z,4.82
2022-11-21T04:38:33.187Z,4.88
2022-11-21T04:40:59.668Z,4.81
2022-11-21T04:43:26.285Z,4.82
2022-11-21T04:45:52.807Z,4.91
2022-11-21T04:48:19.292Z,4.89
2022-11-21T04:50:45.930Z,4.86
2022-11-21T04:53:12.419Z,4.82
2022-11-21T04:55:38.891Z,4.85
2022-11-21T04:58:05.531Z,4.80
2022-11-21T05:00:32.059Z,4.74
2022-11-21T05:03:05.697Z,4.67
2022-11-21T05:05:32.729Z,4.64
2022-11-21T05:07:59.232Z,4.62
2022-11-21T05:10:25.715Z,4.59
2022-11-21T05:13:18.286Z,4.50
2022-11-21T05:15:45.073Z,4.47
2022-11-21T05:18:12.101Z,4.47
2022-11-21T05:20:38.691Z,4.47
2022-11-21T05:23:05.370Z,4.53
2022-11-21T05:25:31.837Z,4.55
2022-11-21T05:27:58.462Z,4.59
2022-11-21T05:30:25.003Z,4.67
2022-11-21T05:32:51.475Z,4.66
2022-11-21T05:35:17.932Z,4.73
2022-11-21T05:37:44.392Z,4.76
2022-11-21T05:40:11.402Z,4.68
2022-11-21T05:43:02.275Z,4.69
2022-11-21T05:45:28.728Z,4.68
2022-11-21T05:47:55.273Z,4.64
2022-11-21T05:50:21.682Z,4.65
2022-11-21T05:52:48.179Z,4.63
2022-11-21T05:55:14.821Z,4.62
2022-11-21T05:57:41.292Z,4.46
2022-11-21T06:00:08.542Z,4.52
2022-11-21T06:02:53.765Z,4.56
2022-11-21T06:05:20.326Z,4.54
2022-11-21T06:07:46.814Z,4.45
2022-11-21T06:10:13.340Z,4.51
2022-11-21T06:12:39.777Z,4.46
2022-11-21T06:15:06.741Z,4.61
2022-11-21T06:17:33.266Z,4.62
2022-11-21T06:19:59.710Z,4.64
2022-11-21T06:22:26.158Z,4.63
2022-11-21T06:24:52.634Z,4.55
2022-11-21T06:27:19.069Z,4.57
2022-11-21T06:29:45.552Z,4.42
2022-11-21T06:32:12.096Z,4.35
2022-11-21T06:34:38.588Z,4.54
2022-11-21T06:37:05.147Z,4.52
2022-11-21T06:39:31.631Z,4.43
2022-11-21T06:41:58.935Z,4.34
2022-11-21T06:44:25.638Z,4.29
2022-11-21T06:46:52.260Z,4.20
2022-11-21T06:49:18.821Z,4.12
2022-11-21T06:51:45.290Z,4.07
2022-11-21T06:54:28.410Z,3.95
2022-11-21T06:56:55.529Z,3.87
2022-11-21T06:59:22.049Z,3.79
2022-11-21T07:01:48.619Z,3.75
2022-11-21T07:04:15.154Z,3.64
2022-11-21T07:06:41.571Z,3.70
2022-11-21T07:09:32.150Z,3.75
2022-11-21T07:11:54.905Z,3.81
2022-11-21T07:14:21.352Z,3.73
2022-11-21T07:16:47.795Z,3.83
2022-11-21T07:19:14.312Z,3.92
2022-11-21T07:21:40.804Z,4.09
2022-11-21T07:24:07.338Z,4.17
2022-11-21T07:26:33.795Z,4.09
2022-11-21T07:29:00.321Z,4.37
2022-11-21T07:31:26.962Z,4.42
2022-11-21T07:33:53.433Z,4.55
2022-11-21T07:36:19.911Z,4.50
2022-11-21T07:38:46.720Z,4.40
2022-11-21T07:41:13.202Z,4.44
2022-11-21T07:43:39.703Z,4.42
2022-11-21T07:46:06.447Z,4.37
2022-11-21T07:48:32.916Z,4.40
2022-11-21T07:50:59.378Z,4.43
2022-11-21T07:53:25.816Z,4.34
2022-11-21T07:55:52.316Z,4.34
2022-11-21T07:58:18.780Z,4.52
2022-11-21T08:00:45.548Z,4.36
2022-11-21T08:03:12.948Z,4.25
2022-11-21T08:05:41.965Z,4.17
2022-11-21T08:08:10.171Z,4.21
2022-11-21T08:10:42.557Z,4.47
2022-11-21T08:13:09.280Z,4.59
2022-11-21T08:15:36.403Z,4.66
2022-11-21T08:18:09.672Z,4.92
2022-11-21T08:20:36.252Z,4.68
2022-11-21T08:23:02.950Z,4.85
2022-11-21T08:25:29.411Z,4.91
2022-11-21T08:27:57.550Z,4.91
2022-11-21T08:30:24.427Z,5.01
2022-11-21T08:32:51.065Z,5.21
2022-11-21T08:35:17.713Z,4.95
2022-11-21T08:37:44.206Z,5.09
2022-11-21T08:40:11.105Z,5.01
2022-11-21T08:42:37.989Z,5.26
2022-11-21T08:45:05.759Z,5.33
2022-11-21T08:47:35.020Z,5.26
2022-11-21T08:50:07.438Z,5.39
2022-11-21T08:52:35.180Z,5.46
2022-11-21T08:55:01.646Z,5.35
2022-11-21T08:57:28.118Z,5.46
2022-11-21T08:59:54.559Z,5.25
2022-11-21T09:02:21.019Z,5.48
2022-11-21T09:04:47.509Z,5.80
2022-11-21T09:07:14.012Z,5.99
2022-11-21T09:09:40.549Z,6.09
2022-11-21T09:12:07.174Z,6.27
2022-11-21T09:14:52.205Z,6.31
2022-11-21T09:17:37.485Z,6.46
2022-11-21T09:20:04.405Z,6.09
2022-11-21T09:22:30.887Z,6.16
2022-11-21T09:24:57.333Z,6.24
2022-11-21T09:27:23.802Z,6.59
2022-11-21T09:29:54.041Z,6.49
2022-11-21T09:32:21.273Z,6.33
2022-11-21T09:34:47.772Z,6.29
2022-11-21T09:37:14.336Z,6.04
2022-11-21T09:39:40.805Z,5.84
2022-11-21T09:42:22.436Z,5.88
2022-11-21T09:45:02.305Z,6.04
2022-11-21T09:47:34.968Z,6.00
2022-11-21T09:50:21.197Z,6.23
2022-11-21T09:52:54.131Z,5.93
2022-11-21T09:55:39.777Z,7.01
2022-11-21T09:58:37.226Z,7.52
2022-11-21T10:01:04.239Z,6.77
2022-11-21T10:03:35.859Z,6.79
2022-11-21T10:06:27.103Z,6.82
2022-11-21T10:09:02.824Z,7.14
2022-11-21T10:12:06.931Z,7.35
2022-11-21T10:14:45.386Z,7.31
2022-11-21T10:17:38.600Z,8.17
2022-11-21T10:20:24.617Z,8.84
2022-11-21T10:23:26.339Z,8.49
2022-11-21T10:26:14.111Z,8.08
2022-11-21T10:29:25.787Z,7.41
2022-11-21T10:31:58.611Z,7.63
2022-11-21T10:34:30.251Z,7.87
2022-11-21T10:37:15.691Z,8.17
2022-11-21T10:39:46.304Z,8.27
2022-11-21T10:42:26.800Z,9.34
2022-11-21T10:45:11.857Z,9.24
2022-11-21T10:47:38.379Z,10.09
2022-11-21T10:50:10.674Z,11.15
2022-11-21T10:53:34.895Z,10.84
2022-11-21T10:56:05.952Z,11.31
2022-11-21T10:58:46.078Z,11.57
2022-11-21T11:01:34.267Z,12.02
2022-11-21T11:04:26.702Z,12.40
2022-11-21T11:06:55.037Z,13.10
2022-11-21T11:09:24.327Z,12.93
2022-11-21T11:11:50.929Z,13.26
2022-11-21T11:14:30.250Z,12.06
2022-11-21T11:16:57.016Z,11.24
2022-11-21T11:19:35.403Z,10.75
2022-11-21T11:22:05.072Z,9.51
2022-11-21T11:24:31.590Z,9.02
2022-11-21T11:27:01.245Z,8.54
2022-11-21T11:29:30.734Z,8.51
2022-11-21T11:32:21.242Z,8.40
2022-11-21T11:35:00.329Z,8.73
2022-11-21T11:37:40.752Z,8.81
2022-11-21T11:40:37.706Z,8.73
2022-11-21T11:43:35.897Z,8.84
2022-11-21T11:46:45.015Z,8.70
2022-11-21T11:49:21.463Z,8.73
2022-11-21T11:51:53.405Z,9.29
2022-11-21T11:54:26.557Z,8.56
2022-11-21T11:56:53.913Z,8.47
2022-11-21T11:59:32.828Z,8.05
2022-11-21T12:02:10.348Z,7.77
2022-11-21T12:04:47.533Z,7.65
2022-11-21T12:10:20.717Z,7.30
2022-11-21T12:12:55.928Z,7.70
2022-11-21T12:15:49.020Z,7.82
2022-11-21T12:18:15.418Z,8.04
2022-11-21T12:20:50.882Z,8.01
2022-11-21T12:23:18.707Z,7.99
2022-11-21T12:26:03.373Z,8.11
2022-11-21T12:28:51.154Z,8.01
2022-11-21T12:31:23.480Z,7.83
2022-11-21T12:34:04.066Z,8.02
2022-11-21T12:36:40.260Z,8.06
2022-11-21T12:39:21.599Z,8.01
2022-11-21T12:42:50.906Z,7.89
2022-11-21T12:45:52.386Z,7.81
2022-11-21T12:48:47.147Z,7.77
2022-11-21T12:51:59.094Z,7.42
2022-11-21T12:54:52.833Z,7.42
2022-11-21T12:57:21.331Z,7.38
2022-11-21T13:00:07.704Z,7.51
2022-11-21T13:02:58.818Z,7.72
2022-11-21T13:05:28.441Z,7.62
2022-11-21T13:08:01.028Z,7.79
2022-11-21T13:10:28.145Z,8.04
2022-11-21T13:13:14.778Z,8.13
2022-11-21T13:15:54.007Z,7.93
2022-11-21T13:18:26.268Z,7.62
2022-11-21T13:20:52.898Z,7.69
2022-11-21T13:23:40.630Z,7.53
2022-11-21T13:26:25.509Z,7.68
2022-11-21T13:29:08.357Z,7.65
2022-11-21T13:31:36.119Z,7.65
2022-11-21T13:34:05.226Z,7.31
2022-11-21T13:36:32.172Z,7.11
2022-11-21T13:38:58.711Z,7.14
2022-11-21T13:41:53.037Z,7.04
2022-11-21T13:44:31.516Z,7.00
2022-11-21T13:47:10.355Z,7.11
2022-11-21T13:49:55.918Z,7.10
2022-11-21T13:52:32.072Z,7.22
2022-11-21T13:55:16.916Z,7.36
2022-11-21T13:57:56.698Z,7.29
2022-11-21T14:00:42.885Z,7.38
2022-11-21T14:03:21.608Z,7.45
2022-11-21T14:06:16.500Z,7.47
2022-11-21T14:08:43.856Z,7.27
2022-11-21T14:11:36.509Z,7.19
2022-11-21T14:14:03.076Z,7.49
2022-11-21T14:16:36.802Z,7.24
2022-11-21T14:19:04.872Z,7.26
2022-11-21T14:21:34.022Z,7.31
2022-11-21T14:24:06.851Z,7.20
2022-11-21T14:26:43.289Z,7.18
2022-11-21T14:29:26.605Z,7.15
2022-11-21T14:31:54.182Z,7.16
2022-11-21T14:34:28.724Z,7.06
2022-11-21T14:36:59.174Z,7.11
2022-11-21T14:39:38.754Z,7.03
2022-11-21T14:42:13.612Z,6.85
2022-11-21T14:44:40.118Z,6.63
2022-11-21T14:47:25.912Z,6.60
2022-11-21T14:49:55.906Z,6.51
2022-11-21T14:52:31.472Z,6.14
2022-11-21T14:55:28.668Z,5.99
2022-11-21T14:57:47.111Z,5.83
2022-11-21T15:00:43.502Z,5.82
2022-11-21T15:03:03.389Z,5.84
2022-11-21T15:06:02.561Z,5.80
2022-11-21T15:11:11.737Z,5.57
2022-11-21T15:13:58.451Z,5.47
2022-11-21T15:16:25.476Z,5.53
2022-11-21T15:18:52.063Z,5.67
2022-11-21T15:21:18.588Z,5.66
2022-11-21T15:23:45.492Z,5.59
2022-11-21T15:26:32.556Z,5.32
2022-11-21T15:29:00.457Z,5.29
2022-11-21T15:31:27.669Z,5.08
2022-11-21T15:34:27.274Z,4.83
2022-11-21T15:36:43.772Z,4.54
2022-11-21T15:39:19.855Z,4.52
2022-11-21T15:41:46.359Z,4.36
2022-11-21T15:44:12.779Z,4.41
2022-11-21T15:46:43.065Z,4.50
2022-11-21T15:49:32.340Z,4.20
2022-11-21T15:52:09.779Z,4.32
2022-11-21T15:54:38.402Z,4.23
2022-11-21T15:57:07.127Z,4.40
2022-11-21T15:59:34.144Z,4.36
2022-11-21T16:02:01.949Z,4.30
2022-11-21T16:04:29.349Z,4.28
2022-11-21T16:06:56.910Z,4.28
2022-11-21T16:09:26.344Z,4.15
2022-11-21T16:11:53.591Z,4.04
2022-11-21T16:14:20.969Z,4.00
2022-11-21T16:16:48.573Z,3.95
2022-11-21T16:19:15.911Z,3.98
2022-11-21T16:21:42.562Z,3.99
2022-11-21T16:24:09.160Z,3.86
2022-11-21T16:26:35.695Z,3.83
2022-11-21T16:29:05.247Z,4.06
2022-11-21T16:31:32.318Z,4.14
2022-11-21T16:33:59.305Z,4.19
2022-11-21T16:36:28.217Z,4.30
2022-11-21T16:39:00.490Z,4.23
2022-11-21T16:41:30.104Z,4.19
2022-11-21T16:43:56.646Z,4.12
2022-11-21T16:46:24.591Z,4.13
2022-11-21T16:49:02.350Z,4.22
2022-11-21T16:51:29.616Z,4.24
2022-11-21T16:53:57.191Z,4.29
2022-11-21T16:56:24.406Z,4.23
2022-11-21T16:58:50.979Z,4.25
2022-11-21T17:01:19.791Z,4.31
2022-11-21T17:03:47.747Z,4.38
2022-11-21T17:06:17.912Z,4.38
2022-11-21T17:08:44.745Z,4.38
2022-11-21T17:11:16.890Z,4.34
2022-11-21T17:13:44.501Z,4.21
2022-11-21T17:16:12.011Z,4.19
2022-11-21T17:18:39.249Z,4.26
2022-11-21T17:21:08.893Z,4.04
2022-11-21T17:23:38.045Z,4.13
2022-11-21T17:26:06.618Z,4.05
2022-11-21T17:28:34.631Z,4.13
2022-11-21T17:31:11.966Z,4.23
2022-11-21T17:33:38.901Z,4.27
2022-11-21T17:36:07.488Z,4.41
2022-11-21T17:38:33.980Z,4.30
2022-11-21T17:41:07.609Z,4.33
2022-11-21T17:43:34.796Z,4.30
2022-11-21T17:46:09.091Z,4.54
2022-11-21T17:48:36.843Z,4.48
2022-11-21T17:51:07.074Z,4.43
2022-11-21T17:53:36.625Z,4.35
2022-11-21T17:56:05.192Z,4.46
2022-11-21T17:58:32.359Z,4.34
2022-11-21T18:01:00.939Z,4.38
2022-11-21T18:03:28.012Z,4.65
2022-11-21T18:06:02.387Z,4.55
2022-11-21T18:08:34.552Z,4.58
2022-11-21T18:11:01.319Z,4.65
2022-11-21T18:13:29.288Z,4.67
2022-11-21T18:15:59.290Z,4.68
2022-11-21T18:18:25.757Z,4.59
2022-11-21T18:20:52.226Z,4.56
2022-11-21T18:23:18.752Z,4.56
2022-11-21T18:25:45.309Z,4.53
2022-11-21T18:28:11.961Z,4.65
2022-11-21T18:30:38.426Z,4.56
2022-11-21T18:33:05.069Z,4.62
2022-11-21T18:35:31.543Z,4.51
2022-11-21T18:37:58.040Z,4.35
2022-11-21T18:40:24.592Z,4.54
2022-11-21T18:42:51.836Z,4.36
2022-11-21T18:45:18.929Z,4.28
2022-11-21T18:47:47.908Z,4.35
2022-11-21T18:50:15.745Z,4.47
2022-11-21T18:52:46.383Z,4.40
2022-11-21T18:55:13.368Z,4.57
2022-11-21T18:57:39.855Z,4.71
2022-11-21T19:00:07.327Z,4.92
2022-11-21T19:02:34.051Z,4.89
2022-11-21T19:05:00.540Z,4.89
2022-11-21T19:07:27.133Z,4.90
2022-11-21T19:09:53.826Z,4.99
2022-11-21T19:12:20.447Z,4.87
2022-11-21T19:14:47.093Z,5.00
2022-11-21T19:17:13.547Z,5.00
2022-11-21T19:19:40.138Z,4.99
2022-11-21T19:22:06.641Z,5.05
2022-11-21T19:24:33.375Z,5.10
2022-11-21T19:26:59.906Z,5.03
2022-11-21T19:29:26.804Z,4.96
2022-11-21T19:31:53.538Z,5.07
2022-11-21T19:34:20.113Z,4.96
2022-11-21T19:36:46.691Z,4.72
2022-11-21T19:39:13.574Z,4.59
2022-11-21T19:41:40.420Z,4.65
2022-11-21T19:44:07.097Z,4.74
2022-11-21T19:46:36.282Z,4.58
2022-11-21T19:49:04.886Z,4.64
2022-11-21T19:51:33.911Z,4.66
2022-11-21T19:54:08.722Z,4.74
2022-11-21T19:56:36.048Z,4.80
2022-11-21T19:59:03.170Z,4.72
2022-11-21T20:01:31.421Z,4.65
2022-11-21T20:04:00.302Z,4.67
2022-11-21T20:06:28.916Z,4.77
2022-11-21T20:08:58.179Z,4.91
2022-11-21T20:11:26.524Z,4.86
2022-11-21T20:13:53.317Z,4.81
2022-11-21T20:16:29.841Z,4.81
2022-11-21T20:18:59.694Z,4.87
2022-11-21T20:21:26.661Z,4.87
2022-11-21T20:23:53.483Z,4.59
2022-11-21T20:26:22.256Z,4.53
2022-11-21T20:28:49.579Z,4.76
2022-11-21T20:31:21.983Z,4.92
2022-11-21T20:33:51.009Z,4.81
2022-11-21T20:36:20.630Z,4.80
2022-11-21T20:38:54.610Z,4.90
2022-11-21T20:41:22.871Z,4.71
2022-11-21T20:44:34.643Z,4.89
2022-11-21T20:46:40.010Z,4.95
2022-11-21T20:49:06.651Z,4.81
2022-11-21T20:54:19.884Z,4.75
2022-11-21T20:56:46.455Z,4.77
2022-11-21T20:59:13.263Z,4.92
2022-11-21T21:01:40.101Z,4.94
2022-11-21T21:04:06.834Z,4.79
2022-11-21T21:06:33.323Z,5.03
2022-11-21T21:08:59.803Z,4.94
2022-11-21T21:11:50.265Z,4.97
2022-11-21T21:14:12.706Z,4.72
2022-11-21T21:16:39.237Z,4.86
2022-11-21T21:19:05.751Z,4.93
2022-11-21T21:21:32.282Z,4.94
2022-11-21T21:23:58.715Z,4.92
2022-11-21T21:26:28.950Z,4.89
2022-11-21T21:28:57.332Z,5.01
2022-11-21T21:31:24.346Z,4.84
2022-11-21T21:33:50.821Z,4.89
2022-11-21T21:36:21.990Z,4.74
2022-11-21T21:38:53.739Z,4.71
2022-11-21T21:41:21.137Z,4.91
2022-11-21T21:43:52.445Z,4.97
2022-11-21T21:46:21.806Z,4.99
2022-11-21T21:48:48.693Z,4.97
2022-11-21T21:51:16.292Z,4.94
2022-11-21T21:53:43.450Z,4.95
2022-11-21T21:56:10.596Z,4.91
2022-11-21T21:58:39.879Z,4.97
2022-11-21T22:01:18.132Z,5.00
2022-11-21T22:03:45.586Z,5.05
2022-11-21T22:06:17.229Z,4.92
2022-11-21T22:08:45.457Z,5.07
2022-11-21T22:11:14.794Z,5.02
2022-11-21T22:13:43.846Z,5.03
2022-11-21T22:16:12.184Z,5.09
2022-11-21T22:18:39.612Z,5.00
2022-11-21T22:21:29.208Z,5.02
2022-11-21T22:24:23.471Z,5.17
2022-11-21T22:26:43.047Z,5.11
2022-11-21T22:29:09.570Z,5.10
2022-11-21T22:31:36.193Z,5.18
2022-11-21T22:34:02.907Z,5.06
2022-11-21T22:36:29.364Z,5.01
2022-11-21T22:38:56.529Z,5.08
2022-11-21T22:41:25.669Z,5.14
2022-11-21T22:43:57.773Z,5.06
2022-11-21T22:46:26.997Z,5.10
2022-11-21T22:48:53.896Z,5.24
2022-11-21T22:51:23.508Z,5.22
2022-11-21T22:53:50.869Z,5.35
2022-11-21T22:56:20.355Z,5.21
2022-11-21T22:58:47.694Z,5.25
2022-11-21T23:01:16.860Z,5.22
2022-11-21T23:03:44.308Z,5.12
2022-11-21T23:06:13.839Z,5.20
2022-11-21T23:08:40.900Z,5.25
2022-11-21T23:11:16.357Z,5.31
2022-11-21T23:13:44.679Z,5.12
2022-11-21T23:16:12.044Z,5.15
2022-11-21T23:18:39.601Z,5.19
2022-11-21T23:21:06.548Z,5.24
2022-11-21T23:23:33.513Z,5.29
2022-11-21T23:25:59.973Z,5.34
2022-11-21T23:28:26.786Z,5.29
2022-11-21T23:30:53.735Z,5.22
2022-11-21T23:33:20.422Z,5.22
2022-11-21T23:35:47.260Z,5.39
2022-11-21T23:38:15.582Z,5.35
2022-11-21T23:40:44.644Z,5.33
2022-11-21T23:43:11.216Z,5.37
2022-11-21T23:45:37.876Z,5.38
2022-11-21T23:48:04.560Z,5.34
2022-11-21T23:50:30.998Z,5.37
2022-11-21T23:52:57.452Z,5.24
2022-11-21T23:55:23.902Z,5.28
2022-11-21T23:57:51.158Z,5.36
